AirNav   Air Wisconsin pilot careers
 
 1700 users online  

3E0 Miami-Roberts County Airport
Miami, Texas, USA

GOING TO MIAMI?


FAA INFORMATION EFFECTIVE 11 OCTOBER 2018

Location

FAA Identifier: 3E0
Lat/Long: 35-42-50.1560N / 100-36-11.4920W
35-42.835933N / 100-36.191533W
35.7139322 / -100.6031922
(estimated)
Elevation: 2720 ft. / 829 m (estimated)
Variation: 08E (1985)
From city: 3 miles NE of MIAMI, TX
Time zone: UTC -5 (UTC -6 during Standard Time)
Zip code: 79059

Airport Operations

Airport use: Open to the public
Activation date: 06/1968
Control tower: no
ARTCC: ALBUQUERQUE CENTER
FSS: FORT WORTH FLIGHT SERVICE STATION
NOTAMs facility: FTW (NOTAM-D service available)
Attendance: UNATNDD
Wind indicator: lighted
Segmented circle: yes
Lights: ACTVT LIRL RY 02/20 - CTAF

Airport Communications

CTAF: 122.9
WX AWOS-3 at HHF (15 nm NE): 119.025 (806-323-8497)

Nearby radio navigation aids

VOR radial/distance  VOR name  Freq  Var
BGDr087/38.3BORGER VORTAC108.6011E

Airport Services

Parking: tiedowns
Airframe service: NONE
Powerplant service: NONE
Bottled oxygen: NONE
Bulk oxygen: NONE

Runway Information

Runway 2/20

Dimensions: 4060 x 50 ft. / 1237 x 15 m
Surface: asphalt, in good condition
Weight bearing capacity: 
Single wheel: 12.5
Runway edge lights: low intensity
RUNWAY 2  RUNWAY 20
Gradient: 0.4%0.4%
Traffic pattern: leftright
Displaced threshold: no390 ft.
Markings: basic, in good conditionbasic, in good condition
Obstructions: 9 ft. trees, 200 ft. from runway
+4 FT FENCE 100 FT R OF CNTRLN AT THLD; +6 FT SHRUBS 105 FT L OF CNTRLN AT THLD, 20 FT TREES 114 FT LEFT OF CNTRLN AT THLD.
8 ft. fence, 200 ft. from runway, 15 ft. right of centerline
+6 FT FENCE AT THLD 77 FT L OF CNTRLN AT THLD, 5 FT FENCE 110 FT FM THLD OB.

Airport Ownership and Management from official FAA records

Ownership: Publicly-owned
Owner: COUNTY OF ROBERTS
BOX 478
MIAMI, TX 79059
Phone 806-868-3721
Manager: RICK TENNANT
BOX 478
MIAMI, TX 79059
Phone 806-868-3721
COUNTY JUDGE.

Airport Operational Statistics

Aircraft operations: 100/year *
100% transient general aviation
* for 12-month period ending 01 November 2017

Additional Remarks

RWY 20 HAS NSTD DISPLACED THLD LIGHTING. RED THLD LIGHTS NOT LOCATED AT THLD.

Instrument Procedures

There are no published instrument procedures at 3E0.

Some nearby airports with instrument procedures:

KHHF - Hemphill County Airport (15 nm NE)
KPPA - Perry Lefors Field Airport (20 nm W)
T59 - Wheeler Municipal Airport (25 nm SE)
1X1 - Higgins-Lipscomb County Airport (37 nm NE)
KBGD - Hutchinson County Airport (39 nm W)
 
Loc | Ops | Rwys | IFR | FBO | Links
Com | Nav | Svcs | Stats | Notes


 
Area around 3E0 (Miami-Roberts County Airport)
 
Road maps at: MapQuest Bing Google
 
Aerial photo
WARNING: Photo may not be current or correct
Aerial photo of 3E0 (Miami-Roberts County Airport)
Photo by Charles Robertson
Photo taken 30-May-2009

Do you have a better or more recent aerial photo of Miami-Roberts County Airport that you would like to share? If so, please send us your photo.

 
Sectional chart

 
Airport distance calculator
Flying to Miami-Roberts County Airport? Find the distance to fly.

From to 3E0

Sunrise and sunset
Times for 16-Oct-2018
 Local
(UTC-5)
 Zulu
(UTC)
Morning civil twilight07:2512:25
Sunrise07:5112:51
Sunset19:0500:05
Evening civil twilight19:3100:31

Current date and time
Zulu (UTC)  16-Oct-2018 18:07:24
Local (UTC-5)  16-Oct-2018 13:07:24
 
METAR
KHHF 
15nm NE 
161755Z AUTO 35007KT 10SM SCT120 15/M06 A3034 RMK AO2 T01461057 10148 20030
KPPA 
21nm SW 
161755Z AUTO 01005G08KT 10SM SCT070 SCT080 OVC100 13/M06 A3036 RMK AO2 T01261060 10133 20029
KBPC 
23nm NW 
161755Z AUTO 02006KT 10SM SCT070 BKN100 13/M07 A3036 RMK AO2
TAF
NOTAMs
Click for the latest NOTAMs
NOTAMs are issued by the DoD/FAA and will open in a separate window not controlled by AirNav.

 

 
 

Would you like to see your business listed on this page?

 If your business provides an interesting product or service to pilots, flight crews, aircraft, or users of the Miami-Roberts County Airport, you should consider listing it here.  To start the listing process, click on the button below
 
Add a business
 

Other Pages about Miami-Roberts County Airport

Update a link
 
Copyright © AirNav, LLC. All rights reserved. Privacy Policy  Contact